Gillette, Wyoming
Current Conditions -  °F | °C
As of 6:53 AM on Friday 31 Oct 2014 (Local Time) from KGCC Reporting Station
Clear Clear  
Wind Chill: 20°   Ceiling: Unl
Heat Index: 33°   Visibility: 10mi
Dew Point: 28°   Wind: 26mph
Humidity: 82%   Direction: 160°SSE
Pressure: 30.17"   Gusts: 33mph
Location:  44.29°N, 105.5°W
Report Text: KGCC 311253Z AUTO 16023G29KT 10SM CLR 01/M02 A3017 RMK AO2 PK WND 16029/1226 SLP236 T00061022
Loading
Personal Weather Stations






























Interactive Weather Map New forecast layout! Learn more

10-Day Weather Forecast

Advertisements
Track Severe Weather on mobile